Updated06/17/2024 11:37pm 
 

Nearby Airport METAR Reports

 

KVSF - Springfield, Vermont, USA
Distance from station: WSW 8mi, 12km
Updated: 06/17/2024 10:54pm
Clear
Clear
 Wind from calm
Wind: Calm
Temperature: 70°F, 21°C
Dew Point: 64°F, 18°C
Humidity: 83%
Barometer: 30.13 inHg, 1020.3 hPa
Clouds: Clear
Visibility: 10 miles, 16 km
2024/06/18 02:54 KVSF 180254Z AUTO 00000KT 10SM CLR 21/18 A3013 RMK AO2 SLP200 T02110183 50009
KLEB - Lebanon, New Hampshire, USA
Distance from station: N 18mi, 29km
Updated: 06/17/2024 10:53pm
Clear
Clear
 Wind from S
Wind: S 7 mph, 11 km/h
Temperature: 73°F, 23°C
Dew Point: 66°F, 19°C
Humidity: 78%
Barometer: 30.11 inHg, 1019.6 hPa
Clouds: Clear
Visibility: 10 miles, 16 km
2024/06/18 02:53 KLEB 180253Z AUTO 19006KT 10SM CLR 23/19 A3011 RMK AO2 SLP185 T02330189 53009
KRUT - Rutland State, Vermont, USA
Distance from station: WNW 31mi, 50km
Updated: 06/17/2024 11:37pm
unable to load KRUT data RC=
unable to load KRUT data RC=
 
 
KEEN - Keene/Dillant, New Hampshire, USA
Distance from station: S 34mi, 55km
Updated: 06/17/2024 10:56pm
Clear
Clear
 Wind from SW
Wind: SW 5 mph, 7 km/h
Temperature: 70°F, 21°C
Dew Point: 64°F, 18°C
Humidity: 83%
Barometer: 30.15 inHg, 1021 hPa
Clouds: Clear
Visibility: 10 miles, 16 km
2024/06/18 02:56 KEEN 180256Z AUTO 22004KT 10SM CLR 21/18 A3015 RMK AO2 SLP213 T02060178 51013 $
K1P1 - Plymouth, New Hampshire, USA
Distance from station: NE 42mi, 67km
Updated: 06/17/2024 11:35pm

 Wind from calm
Wind: Calm
Temperature: 66°F, 19°C
Dew Point: 64°F, 18°C
Humidity: 94%
Barometer: 30.12 inHg, 1020 hPa
2024/06/18 03:35 K1P1 180335Z AUTO 00000KT 19/18 A3012 RMK AO2 T01850177 PWINO
KAFN - Jaffrey, New Hampshire, USA
Distance from station: SSE 44mi, 70km
Updated: 06/17/2024 10:52pm
Clear
Clear
 Wind from SSW
Wind: SSW 8 mph, 13 km/h
Temperature: 73°F, 23°C
Dew Point: 61°F, 16°C
Humidity: 65%
Barometer: 30.18 inHg, 1022 hPa
Clouds: Clear
Visibility: 10 miles, 16 km
2024/06/18 02:52 KAFN 180252Z AUTO 20007KT 10SM CLR 23/16 A3018 RMK AO2 SLP219 T02280161 51012
 
KCON - Concord, New Hampshire, USA
Distance from station: ESE 45mi, 73km
Updated: 06/17/2024 10:51pm
Clear
Clear
 Wind from S
Wind: S 5 mph, 7 km/h
Temperature: 72°F, 22°C
Dew Point: 64°F, 18°C
Humidity: 78%
Barometer: 30.12 inHg, 1020 hPa
Clouds: Clear
Visibility: 10 miles, 16 km
2024/06/18 02:51 KCON 180251Z AUTO 18004KT 10SM CLR 22/18 A3012 RMK AO2 SLP197 T02170178 51007
KLCI - Laconia Muni, New Hampshire, USA
Distance from station: ENE 49mi, 80km
Updated: 06/17/2024 10:56pm
Clear
Clear
 Wind from SSW
Wind: SSW 10 mph, 17 km/h
Temperature: 73°F, 23°C
Dew Point: 64°F, 18°C
Humidity: 74%
Barometer: 30.11 inHg, 1019.6 hPa
Clouds: Clear
Visibility: 10 miles, 16 km
2024/06/18 02:56 KLCI 180256Z AUTO 21009KT 10SM CLR 23/18 A3011 RMK AO2 SLP194 T02330183 50006
KDDH - Bennington, Vermont, USA
Distance from station: SW 55mi, 89km
Updated: 06/17/2024 10:54pm
Few Clouds
Few Clouds
 Wind from calm
Wind: Calm
Temperature: 72°F, 22°C
Dew Point: 66°F, 19°C
Humidity: 83%
Barometer: 30.14 inHg, 1020.7 hPa
Clouds: Few Clouds
Visibility: 10 miles, 16 km
Cloud details: Few Clouds 6500 ft
2024/06/18 02:54 KDDH 180254Z AUTO 00000KT 10SM FEW065 22/19 A3014 RMK AO2 SLP200 T02220189 51013
 
K6B0 - Middlebury, Vermont, USA
Distance from station: NW 56mi, 90km
Updated: 05/15/2024 11:55pm
NOT Current
Overcast
Overcast
 Wind from calm
Wind: Calm
Temperature: 57°F, 14°C
Dew Point: 52°F, 11°C
Humidity: 82%
Barometer: 29.84 inHg, 1010.5 hPa
Clouds: Overcast
Visibility: 10 miles, 16 km
Cloud details: Partly cloudy 8000 ft
Overcast 9000 ft
2024/05/16 03:55 K6B0 160355Z AUTO 00000KT 10SM SCT080 OVC090 14/11 A2984 RMK AO2 T01360112
KMHT - Manchester, New Hampshire, USA
Distance from station: ESE 56mi, 90km
Updated: 06/17/2024 10:53pm
Partly cloudy
Partly cloudy
 Wind from S
Wind: S 7 mph, 11 km/h
Temperature: 73°F, 23°C
Dew Point: 61°F, 16°C
Humidity: 65%
Barometer: 30.11 inHg, 1019.6 hPa
Clouds: Partly cloudy
Visibility: 10 miles, 16 km
Cloud details: Partly cloudy 25000 ft
2024/06/18 02:53 KMHT 180253Z 18006KT 10SM SCT250 23/16 A3011 RMK AO2 SLP205 T02280161 50004
KORE - Orange, Massachusetts, USA
Distance from station: S 56mi, 90km
Updated: 06/17/2024 10:52pm
Clear
Clear
 Wind from S
Wind: S 9 mph, 15 km/h
Temperature: 72°F, 22°C
Dew Point: 61°F, 16°C
Humidity: 69%
Barometer: 30.18 inHg, 1022 hPa
Clouds: Clear
Visibility: 10 miles, 16 km
2024/06/18 02:52 KORE 180252Z AUTO 19008KT 10SM CLR 22/16 A3018 RMK AO2 SLP216 T02220161 51018
 
KMPV - Montpelier/Barre, Vermont, USA
Distance from station: N 58mi, 93km
Updated: 06/17/2024 10:51pm
Clear
Clear
 Wind from calm
Wind: Calm
Temperature: 72°F, 22°C
Dew Point: 64°F, 18°C
Humidity: 78%
Barometer: 30.15 inHg, 1021 hPa
Clouds: Clear
Visibility: 10 miles, 16 km
2024/06/18 02:51 KMPV 180251Z AUTO 00000KT 10SM CLR 22/18 A3015 RMK AO2 SLP204 T02170178 53009
KASH - Nashua/Boire Fld, New Hampshire, USA
Distance from station: SE 59mi, 95km
Updated: 06/17/2024 10:56pm
Clear
Clear
 Wind from calm
Wind: Calm
Temperature: 72°F, 22°C
Dew Point: 66°F, 19°C
Humidity: 83%
Barometer: 30.13 inHg, 1020.3 hPa
Clouds: Clear
Visibility: 10 miles, 16 km
2024/06/18 02:56 KASH 180256Z AUTO 00000KT 10SM CLR 22/19 A3013 RMK AO2 SLP207 T02220189 50004
KAQW - North Adams, Massachusetts, USA
Distance from station: SW 62mi, 99km
Updated: 06/17/2024 10:52pm
Clear
Clear
 Wind from ESE
Wind: ESE 3 mph, 6 km/h
Temperature: 73°F, 23°C
Dew Point: 68°F, 20°C
Humidity: 83%
Barometer: 30.15 inHg, 1021 hPa
Clouds: Clear
Visibility: 10 miles, 16 km
2024/06/18 02:52 KAQW 180252Z AUTO 11003KT 10SM CLR 23/20 A3015 RMK AO2 SLP207 T02330200 51018
 
KGFL - Glens Falls, New York, USA
Distance from station: W 63mi, 101km
Updated: 06/17/2024 10:53pm
Clear
Clear
 Wind from calm
Wind: Calm
Temperature: 70°F, 21°C
Dew Point: 68°F, 20°C
Humidity: 94%
Barometer: 30.10 inHg, 1019.3 hPa
Clouds: Clear
Visibility: 10 miles, 16 km
2024/06/18 02:53 KGFL 180253Z AUTO 00000KT 10SM CLR 21/20 A3010 RMK AO2 SLP189 T02110200 51014
KFIT - Fitchburg, Massachusetts, USA
Distance from station: SSE 65mi, 105km
Updated: 06/17/2024 10:52pm
Clear
Clear
 Wind from S
Wind: S 3 mph, 6 km/h
Temperature: 73°F, 23°C
Dew Point: 61°F, 16°C
Humidity: 65%
Barometer: 30.16 inHg, 1021.3 hPa
Clouds: Clear
Visibility: 10 miles, 16 km
2024/06/18 02:52 KFIT 180252Z AUTO 19003KT 10SM CLR 23/16 A3016 RMK AO2 SLP211 T02280156 51009
KDAW - Rochester, New Hampshire, USA
Distance from station: E 73mi, 118km
Updated: 06/17/2024 10:51pm
Clear
Clear
 Wind from varies
Wind: varies 3 mph, 6 km/h
Temperature: 73°F, 23°C
Dew Point: 63°F, 17°C
Humidity: 69%
Barometer: 30.11 inHg, 1019.6 hPa
Clouds: Clear
Visibility: 10 miles, 16 km
2024/06/18 02:51 KDAW 180251Z AUTO VRB03KT 10SM CLR 23/17 A3011 RMK AO2 SLP193 T02330167 51007
 
K1V4 - St. Johnsbury, Vermont, USA
Distance from station: NNE 74mi, 119km
Updated: 06/17/2024 10:54pm

 
Temperature: 72°F, 22°C
Dew Point: 64°F, 18°C
Humidity: 78%
Barometer: 30.08 inHg, 1018.6 hPa
2024/06/18 02:54 K1V4 180254Z AUTO 22/18 A3008 RMK AO1 SLP176 T02170183 53011
KLWM - Lawrence, Massachusetts, USA
Distance from station: SE 77mi, 124km
Updated: 06/17/2024 10:54pm
Clear
Clear
 Wind from SW
Wind: SW 6 mph, 9 km/h
Temperature: 72°F, 22°C
Dew Point: 61°F, 16°C
Humidity: 69%
Barometer: 30.15 inHg, 1021 hPa
Clouds: Clear
Visibility: 10 miles, 16 km
2024/06/18 02:54 KLWM 180254Z AUTO 22005KT 10SM CLR 22/16 A3015 RMK AO2 SLP208 T02220156 51006



Flag Counter
free counter page views since 4/29/2009